Terminal Aerodrome Forecast
Issued by NWS

Home | Current Version | Previous Version | Text Only | Print | Product List | Glossary On
Versions: 1 2 3 4 5 6 7 8 9 10 11 12 13 14 15 16 17 18 19 20 21 22 23 24 25 26
000
FTUS43 KDVN 241000 AAA
TAFBRL
TAF AMD
KBRL 241031Z 2411/2506 30017G26KT 2SM -SN SCT007 OVC015
      TEMPO 2411/2413 1SM -SN BR BKN007
     FM241400 29018G27KT 2SM -SN BR OVC007
     FM241800 28017G26KT P6SM -SHSN OVC025
     FM250100 28012KT P6SM BKN025=

USA.gov is the U.S. government's official web portal to all federal, state and local government web resources and services.